Time;durP1;ratioP1;P1;durP2;ratioP2;P2;SDS_P1;SDS_P2;PMS_P1;PMS_P2;Temp;Humidity;BMP_temperature;BMP_pressure;BME280_temperature;BME280_humidity;BME280_pressure;Samples;Min_cycle;Max_cycle;Signal;HPM_P1;HPM_P2
2024/03/20 00:01:26;;;;;;;19.60;8.63;;;8.50;99.90;;;;;;4911676;29;20573;-66
2024/03/20 00:03:53;;;;;;;17.07;7.97;;;8.50;99.90;;;;;;4913210;29;20714;-66
2024/03/20 00:06:21;;;;;;;18.00;8.77;;;8.50;99.90;;;;;;4913018;29;20228;-65
2024/03/20 00:08:49;;;;;;;22.77;8.50;;;8.50;99.90;;;;;;4903476;29;20237;-66
2024/03/20 00:11:16;;;;;;;20.77;8.40;;;8.50;99.90;;;;;;4916334;29;20201;-66
2024/03/20 00:13:44;;;;;;;16.37;7.57;;;8.60;99.90;;;;;;4912477;29;20229;-66
2024/03/20 00:16:12;;;;;;;13.07;7.90;;;8.60;99.90;;;;;;4912546;29;20221;-65
2024/03/20 00:18:39;;;;;;;20.70;8.03;;;8.60;99.90;;;;;;4909784;29;20284;-65
2024/03/20 00:21:06;;;;;;;12.10;8.07;;;8.60;99.90;;;;;;4913853;29;20236;-66
2024/03/20 00:23:35;;;;;;;19.93;8.50;;;8.60;99.90;;;;;;4917638;29;20271;-66
2024/03/20 00:26:03;;;;;;;21.67;8.63;;;8.60;99.90;;;;;;4913065;29;20308;-66
2024/03/20 00:28:30;;;;;;;22.53;9.23;;;8.60;99.90;;;;;;4911668;29;20253;-65
2024/03/20 00:30:57;;;;;;;23.47;9.60;;;8.50;99.90;;;;;;4914893;29;20644;-65
2024/03/20 00:33:25;;;;;;;15.73;8.57;;;8.50;99.90;;;;;;4914152;29;20562;-66
2024/03/20 00:35:52;;;;;;;21.03;8.20;;;8.50;99.90;;;;;;4919080;29;20227;-66
2024/03/20 00:38:19;;;;;;;22.67;8.90;;;8.50;99.90;;;;;;4918060;29;20193;-66
2024/03/20 00:40:48;;;;;;;16.57;8.30;;;8.50;99.90;;;;;;4909939;29;20221;-66
2024/03/20 00:43:15;;;;;;;18.60;8.33;;;8.50;99.90;;;;;;4919619;29;20229;-67
2024/03/20 00:45:44;;;;;;;19.70;9.23;;;8.50;99.90;;;;;;4907706;29;20573;-66
2024/03/20 00:48:11;;;;;;;22.07;9.20;;;8.40;99.90;;;;;;4912786;29;20225;-66
2024/03/20 00:50:38;;;;;;;20.70;9.17;;;8.40;99.90;;;;;;4912399;29;20680;-65
2024/03/20 00:53:05;;;;;;;16.73;8.57;;;8.40;99.90;;;;;;4910148;29;20288;-66
2024/03/20 00:55:33;;;;;;;20.90;9.53;;;8.40;99.90;;;;;;4912434;29;20241;-65
2024/03/20 00:58:01;;;;;;;21.97;10.23;;;8.30;99.90;;;;;;4913179;29;20221;-66
2024/03/20 01:00:29;;;;;;;24.37;9.53;;;8.30;99.90;;;;;;4909837;29;20222;-66
2024/03/20 01:02:56;;;;;;;24.77;10.10;;;8.30;99.90;;;;;;4913298;29;20228;-65
2024/03/20 01:05:23;;;;;;;20.73;9.37;;;8.20;99.90;;;;;;4912582;29;20260;-66
2024/03/20 01:07:51;;;;;;;25.13;10.63;;;8.20;99.90;;;;;;4920016;29;20225;-65
2024/03/20 01:10:20;;;;;;;22.83;10.63;;;8.10;99.90;;;;;;4912309;29;20233;-65
2024/03/20 01:12:48;;;;;;;21.47;10.97;;;8.10;99.90;;;;;;4932386;29;20757;-65
2024/03/20 01:15:16;;;;;;;21.80;10.33;;;8.10;99.90;;;;;;4905158;29;20223;-66
2024/03/20 01:17:45;;;;;;;17.03;9.47;;;8.00;99.90;;;;;;4913098;29;20264;-66
2024/03/20 01:20:12;;;;;;;22.23;9.73;;;8.00;99.90;;;;;;4909273;29;20194;-66
2024/03/20 01:22:39;;;;;;;20.83;9.73;;;8.00;99.90;;;;;;4913004;29;20233;-66
2024/03/20 01:25:07;;;;;;;21.00;9.60;;;8.00;99.90;;;;;;4914316;29;20312;-66
2024/03/20 01:27:35;;;;;;;28.50;10.07;;;8.00;99.90;;;;;;4914746;29;20277;-66
2024/03/20 01:30:03;;;;;;;17.73;8.77;;;8.00;99.90;;;;;;4910244;29;20304;-65
2024/03/20 01:32:32;;;;;;;23.27;9.90;;;8.00;99.90;;;;;;4919455;29;20268;-65
2024/03/20 01:34:59;;;;;;;21.60;10.30;;;7.90;99.90;;;;;;4910590;29;20215;-65
2024/03/20 01:37:27;;;;;;;24.63;10.90;;;8.00;99.90;;;;;;4910401;29;20308;-66
2024/03/20 01:39:54;;;;;;;20.87;10.10;;;8.00;99.90;;;;;;4905321;29;20305;-66
2024/03/20 01:42:21;;;;;;;22.97;10.63;;;8.00;99.90;;;;;;4912674;29;20680;-65
2024/03/20 01:44:49;;;;;;;20.37;9.43;;;7.90;99.90;;;;;;4911727;29;20233;-66
2024/03/20 01:47:16;;;;;;;20.10;9.73;;;7.90;99.90;;;;;;4918539;29;20201;-66
2024/03/20 01:49:45;;;;;;;15.63;9.40;;;7.90;99.90;;;;;;4917691;29;20225;-66
2024/03/20 01:52:13;;;;;;;24.87;10.23;;;7.80;99.90;;;;;;4908185;29;20241;-66
2024/03/20 01:54:40;;;;;;;20.83;10.10;;;7.80;99.90;;;;;;4909784;29;20216;-66
2024/03/20 01:57:09;;;;;;;19.33;9.83;;;7.80;99.90;;;;;;4912518;29;20353;-66
2024/03/20 01:59:36;;;;;;;16.87;9.77;;;7.70;99.90;;;;;;4912590;29;20201;-66
2024/03/20 02:02:04;;;;;;;23.93;10.83;;;7.70;99.90;;;;;;4908748;29;20604;-65
2024/03/20 02:04:31;;;;;;;19.73;9.90;;;7.70;99.90;;;;;;4911271;29;20543;-66
2024/03/20 02:07:00;;;;;;;23.63;11.00;;;7.60;99.90;;;;;;4908634;29;20273;-66
2024/03/20 02:09:27;;;;;;;21.93;10.13;;;7.60;99.90;;;;;;4915657;29;20225;-67
2024/03/20 02:11:54;;;;;;;22.30;11.57;;;7.60;99.90;;;;;;4906968;29;20240;-66
2024/03/20 02:14:22;;;;;;;24.70;11.37;;;7.60;99.90;;;;;;4914003;29;20614;-65
2024/03/20 02:16:49;;;;;;;27.53;11.30;;;7.50;99.90;;;;;;4907110;29;20310;-67
2024/03/20 02:19:16;;;;;;;24.10;11.30;;;7.50;99.90;;;;;;4910963;29;20225;-65
2024/03/20 02:21:45;;;;;;;23.90;11.63;;;7.50;99.90;;;;;;4911975;29;20226;-65
2024/03/20 02:24:13;;;;;;;29.33;12.40;;;7.50;99.90;;;;;;4906633;29;20237;-65
2024/03/20 02:26:40;;;;;;;22.40;12.20;;;7.50;99.90;;;;;;4912615;29;20292;-65
2024/03/20 02:29:07;;;;;;;26.17;12.73;;;7.50;99.90;;;;;;4920920;29;20657;-65
2024/03/20 02:31:35;;;;;;;32.60;13.30;;;7.40;99.90;;;;;;4916403;29;20279;-66
2024/03/20 02:34:02;;;;;;;22.43;11.63;;;7.40;99.90;;;;;;4917217;29;20240;-66
2024/03/20 02:36:29;;;;;;;29.10;12.93;;;7.40;99.90;;;;;;4913575;29;20217;-66
2024/03/20 02:38:58;;;;;;;29.37;12.10;;;7.40;99.90;;;;;;4922304;29;20223;-66
2024/03/20 02:41:26;;;;;;;31.07;12.73;;;7.40;99.90;;;;;;4920161;29;20194;-66
2024/03/20 02:43:53;;;;;;;27.13;12.27;;;7.40;99.90;;;;;;4917648;29;20255;-65
2024/03/20 02:46:21;;;;;;;28.10;12.07;;;7.30;99.90;;;;;;4908806;29;20220;-65
2024/03/20 02:48:48;;;;;;;26.20;13.03;;;7.30;99.90;;;;;;4917388;29;20224;-66
2024/03/20 02:51:15;;;;;;;36.50;13.70;;;7.30;99.90;;;;;;4916084;29;20374;-66
2024/03/20 02:53:43;;;;;;;33.57;13.97;;;7.30;99.90;;;;;;4922642;29;20205;-66
2024/03/20 02:56:11;;;;;;;28.57;13.53;;;7.30;99.90;;;;;;4916623;29;20209;-66
2024/03/20 02:58:39;;;;;;;35.93;14.23;;;7.30;99.90;;;;;;4916565;29;20587;-65
2024/03/20 03:01:06;;;;;;;32.00;14.47;;;7.30;99.90;;;;;;4919283;29;20568;-65
2024/03/20 03:03:33;;;;;;;29.40;13.57;;;7.20;99.90;;;;;;4912248;29;20225;-66
2024/03/20 03:06:02;;;;;;;25.47;12.63;;;7.20;99.90;;;;;;4915793;29;20307;-65
2024/03/20 03:08:29;;;;;;;27.23;13.53;;;7.10;99.90;;;;;;4921205;29;20197;-65
2024/03/20 03:10:56;;;;;;;31.87;15.03;;;7.10;99.90;;;;;;4916750;29;20210;-66
2024/03/20 03:13:26;;;;;;;24.90;13.47;;;7.10;99.90;;;;;;4914522;29;20215;-66
2024/03/20 03:15:53;;;;;;;26.67;13.03;;;7.10;99.90;;;;;;4912483;29;20304;-66
2024/03/20 03:18:21;;;;;;;22.80;12.97;;;7.10;99.90;;;;;;4912957;29;20227;-65
2024/03/20 03:20:48;;;;;;;26.90;12.47;;;7.00;99.90;;;;;;4918337;29;20699;-65
2024/03/20 03:23:15;;;;;;;27.07;13.33;;;7.00;99.90;;;;;;4919874;29;20417;-66
2024/03/20 03:25:43;;;;;;;25.23;13.03;;;7.00;99.90;;;;;;4913732;29;20272;-66
2024/03/20 03:28:10;;;;;;;27.60;14.00;;;7.00;99.90;;;;;;4919797;29;20220;-66
2024/03/20 03:30:38;;;;;;;32.63;14.83;;;6.90;99.90;;;;;;4919118;29;20276;-66
2024/03/20 03:33:06;;;;;;;29.03;14.53;;;6.90;99.90;;;;;;4914594;29;20304;-66
2024/03/20 03:35:33;;;;;;;32.83;15.00;;;6.90;99.90;;;;;;4924820;29;20800;-66
2024/03/20 03:38:00;;;;;;;28.47;14.20;;;6.90;99.90;;;;;;4912981;29;20196;-66
2024/03/20 03:40:28;;;;;;;31.30;15.17;;;6.90;99.90;;;;;;4907550;29;20295;-66
2024/03/20 03:42:55;;;;;;;32.00;14.90;;;6.80;99.90;;;;;;4913051;29;20217;-66
2024/03/20 03:45:23;;;;;;;35.23;15.17;;;6.80;99.90;;;;;;4912238;29;20220;-66
2024/03/20 03:47:51;;;;;;;30.73;15.30;;;6.80;99.90;;;;;;4914778;29;20229;-65
2024/03/20 03:50:19;;;;;;;41.20;17.60;;;6.80;99.90;;;;;;4915176;29;20289;-66
2024/03/20 03:52:46;;;;;;;36.60;18.17;;;6.80;99.90;;;;;;4922005;29;20737;-65
2024/03/20 03:55:13;;;;;;;43.00;18.00;;;6.80;99.90;;;;;;4917205;29;20739;-66
2024/03/20 03:57:41;;;;;;;39.43;17.10;;;6.80;99.90;;;;;;4916509;29;20581;-65
2024/03/20 04:00:10;;;;;;;38.23;18.20;;;6.80;99.90;;;;;;4913060;29;20631;-66
2024/03/20 04:02:37;;;;;;;39.63;16.57;;;6.80;99.90;;;;;;4931176;29;20201;-66
2024/03/20 04:05:07;;;;;;;35.03;16.70;;;6.70;99.90;;;;;;4919629;29;20644;-66
2024/03/20 04:07:34;;;;;;;30.03;15.80;;;6.70;99.90;;;;;;4914125;29;20308;-65
2024/03/20 04:10:02;;;;;;;33.27;16.00;;;6.70;99.90;;;;;;4920611;29;20248;-65
2024/03/20 04:12:29;;;;;;;36.43;15.60;;;6.70;99.90;;;;;;4926175;29;20684;-66
2024/03/20 04:14:57;;;;;;;38.07;15.80;;;6.70;99.90;;;;;;4904609;29;20225;-66
2024/03/20 04:17:24;;;;;;;29.17;15.70;;;6.70;99.90;;;;;;4912005;29;20304;-66
2024/03/20 04:19:51;;;;;;;36.23;15.30;;;6.60;99.90;;;;;;4909268;29;20339;-65
2024/03/20 04:22:20;;;;;;;30.87;16.10;;;6.60;99.90;;;;;;4912710;29;20248;-65
2024/03/20 04:24:47;;;;;;;33.53;15.73;;;6.50;99.90;;;;;;4911166;29;20312;-65
2024/03/20 04:27:15;;;;;;;35.37;15.77;;;6.50;99.90;;;;;;4907980;29;20278;-65
2024/03/20 04:29:46;;;;;;;32.60;15.50;;;6.50;99.90;;;;;;4908253;29;20206;-65
2024/03/20 04:32:13;;;;;;;32.27;15.57;;;6.50;99.90;;;;;;4913782;29;20209;-65
2024/03/20 04:34:41;;;;;;;33.97;17.00;;;6.50;99.90;;;;;;4918945;29;20231;-66
2024/03/20 04:37:08;;;;;;;32.70;16.73;;;6.50;99.90;;;;;;4915246;29;20275;-66
2024/03/20 04:39:37;;;;;;;37.47;16.93;;;6.50;99.90;;;;;;4906185;29;20313;-66
2024/03/20 04:42:05;;;;;;;38.77;18.80;;;6.40;99.90;;;;;;4912472;29;20718;-65
2024/03/20 04:44:32;;;;;;;41.00;18.80;;;6.40;99.90;;;;;;4908313;29;20229;-65
2024/03/20 04:46:58;;;;;;;36.67;16.90;;;6.50;99.90;;;;;;4911567;29;20560;-67
2024/03/20 04:49:25;;;;;;;34.73;16.73;;;6.50;99.90;;;;;;4910169;29;20228;-66
2024/03/20 04:51:53;;;;;;;33.57;17.23;;;6.40;99.90;;;;;;4910975;29;20231;-65
2024/03/20 04:54:20;;;;;;;40.07;18.40;;;6.40;99.90;;;;;;4913372;29;20225;-66
2024/03/20 04:56:49;;;;;;;39.57;18.80;;;6.30;99.90;;;;;;4916814;29;20592;-66
2024/03/20 04:59:16;;;;;;;41.90;19.07;;;6.40;99.90;;;;;;4922374;29;20213;-66
2024/03/20 05:01:44;;;;;;;39.57;18.20;;;6.30;99.90;;;;;;4909230;29;20218;-66
2024/03/20 05:04:12;;;;;;;33.40;16.50;;;6.30;99.90;;;;;;4914342;29;20249;-65
2024/03/20 05:06:39;;;;;;;41.93;17.50;;;6.30;99.90;;;;;;4908585;29;20217;-66
2024/03/20 05:09:06;;;;;;;40.43;17.83;;;6.30;99.90;;;;;;4913445;29;20229;-66
2024/03/20 05:11:34;;;;;;;37.70;19.10;;;6.30;99.90;;;;;;4913909;29;20831;-64
2024/03/20 05:14:02;;;;;;;43.57;18.97;;;6.30;99.90;;;;;;4909383;29;20197;-66
2024/03/20 05:16:30;;;;;;;40.73;18.57;;;6.30;99.90;;;;;;4921438;29;20284;-66
2024/03/20 05:18:57;;;;;;;36.13;18.10;;;6.30;99.90;;;;;;4914997;29;20220;-66
2024/03/20 05:21:25;;;;;;;52.83;18.50;;;6.20;99.90;;;;;;4916803;29;20580;-65
2024/03/20 05:23:51;;;;;;;46.33;19.23;;;6.20;99.90;;;;;;4917921;29;20233;-65
2024/03/20 05:26:18;;;;;;;33.47;17.33;;;6.20;99.90;;;;;;4915968;29;20201;-66
2024/03/20 05:28:45;;;;;;;47.03;17.50;;;6.20;99.90;;;;;;4908748;29;20225;-67
2024/03/20 05:31:27;;;;;;;39.43;17.07;;;6.20;99.90;;;;;;4914807;29;20253;-66
2024/03/20 05:33:53;;;;;;;37.37;18.53;;;6.20;99.90;;;;;;4910822;29;20353;-66
2024/03/20 05:36:20;;;;;;;34.37;15.73;;;6.10;99.90;;;;;;4915946;29;20313;-66
2024/03/20 05:38:47;;;;;;;40.40;17.80;;;6.10;99.90;;;;;;4910763;29;20292;-66
2024/03/20 05:41:15;;;;;;;51.00;19.93;;;6.10;99.90;;;;;;4913510;29;20199;-65
2024/03/20 05:43:41;;;;;;;54.07;21.30;;;6.10;99.90;;;;;;4907667;29;20301;-66
2024/03/20 05:46:10;;;;;;;52.90;20.07;;;6.10;99.90;;;;;;4912907;29;20221;-65
2024/03/20 05:48:38;;;;;;;43.63;19.23;;;6.10;99.90;;;;;;4912970;29;20235;-66
2024/03/20 05:51:06;;;;;;;40.23;18.63;;;6.10;99.90;;;;;;4912887;29;20231;-66
2024/03/20 05:53:32;;;;;;;43.87;18.90;;;6.10;99.90;;;;;;4898801;29;20205;-67
2024/03/20 05:56:00;;;;;;;49.00;19.27;;;6.10;99.90;;;;;;4911017;29;20197;-66
2024/03/20 05:58:27;;;;;;;40.40;18.40;;;6.10;99.90;;;;;;4912219;29;20258;-66
2024/03/20 06:00:53;;;;;;;41.10;17.60;;;6.10;99.90;;;;;;4913634;29;20313;-67
2024/03/20 06:03:21;;;;;;;38.40;17.63;;;6.10;99.90;;;;;;4909970;29;20235;-65
2024/03/20 06:05:48;;;;;;;35.53;16.70;;;6.10;99.90;;;;;;4912032;29;20198;-66
2024/03/20 06:08:16;;;;;;;37.97;15.77;;;6.10;99.90;;;;;;4914998;29;20649;-66
2024/03/20 06:10:42;;;;;;;33.00;16.30;;;6.10;99.90;;;;;;4911239;29;20257;-66
2024/03/20 06:13:10;;;;;;;30.90;15.50;;;6.20;99.90;;;;;;4910293;29;20235;-66
2024/03/20 06:15:36;;;;;;;25.40;14.37;;;6.20;99.90;;;;;;4910929;29;20224;-66
2024/03/20 06:18:05;;;;;;;30.60;15.07;;;6.20;99.90;;;;;;4910900;29;20477;-65
2024/03/20 06:20:31;;;;;;;31.30;14.97;;;6.30;99.90;;;;;;4926158;29;20194;-66
2024/03/20 06:22:59;;;;;;;29.13;15.00;;;6.40;99.90;;;;;;4911443;29;20728;-65
2024/03/20 06:25:27;;;;;;;40.63;16.13;;;6.40;99.90;;;;;;4904019;29;20300;-65
2024/03/20 06:27:54;;;;;;;37.97;18.90;;;6.50;99.90;;;;;;4913291;29;20590;-65
2024/03/20 06:30:23;;;;;;;36.17;18.07;;;6.60;99.90;;;;;;4915496;29;20217;-65
2024/03/20 06:32:50;;;;;;;40.50;19.70;;;6.70;99.90;;;;;;4912041;29;20229;-65
2024/03/20 06:35:17;;;;;;;45.93;22.13;;;6.80;99.90;;;;;;4912148;29;20216;-65
2024/03/20 06:37:45;;;;;;;54.57;22.33;;;6.90;99.90;;;;;;4910373;29;20704;-66
2024/03/20 06:40:13;;;;;;;45.23;21.23;;;7.00;99.90;;;;;;4910605;29;20303;-65
2024/03/20 06:42:40;;;;;;;42.43;19.90;;;7.10;99.90;;;;;;4904215;29;20300;-65
2024/03/20 06:45:08;;;;;;;44.67;20.90;;;7.30;99.90;;;;;;4912127;29;20786;-66
2024/03/20 06:47:37;;;;;;;43.03;20.80;;;7.40;99.90;;;;;;4904310;29;20206;-66
2024/03/20 06:50:06;;;;;;;37.03;19.53;;;7.50;99.90;;;;;;4907912;29;20199;-66
2024/03/20 06:52:38;;;;;;;39.07;19.73;;;7.70;99.90;;;;;;4913795;29;20616;-66
2024/03/20 06:55:07;;;;;;;44.63;20.63;;;7.80;99.90;;;;;;4910512;29;20222;-65
2024/03/20 06:57:36;;;;;;;39.97;20.30;;;8.00;99.90;;;;;;4911040;29;20564;-66
2024/03/20 07:00:17;;;;;;;49.67;19.83;;;8.10;99.90;;;;;;4910107;29;20307;-66
2024/03/20 07:02:45;;;;;;;51.20;23.37;;;8.30;99.90;;;;;;4912282;29;20248;-66
2024/03/20 07:05:14;;;;;;;46.87;22.17;;;8.50;99.90;;;;;;4913797;29;20346;-66
2024/03/20 07:07:42;;;;;;;46.43;22.00;;;8.60;99.90;;;;;;4904519;29;20569;-66
2024/03/20 07:10:09;;;;;;;42.97;21.50;;;8.70;99.90;;;;;;4907879;29;20222;-66
2024/03/20 07:12:38;;;;;;;50.73;21.83;;;8.90;99.90;;;;;;4909207;29;20316;-66
2024/03/20 07:15:07;;;;;;;51.73;22.20;;;9.00;99.90;;;;;;4912799;29;20221;-66
2024/03/20 07:17:35;;;;;;;40.50;20.50;;;9.20;99.90;;;;;;4908970;29;20202;-64
2024/03/20 07:20:06;;;;;;;38.63;20.27;;;9.50;99.90;;;;;;4913412;29;20280;-67
2024/03/20 07:22:33;;;;;;;45.50;21.17;;;9.80;99.90;;;;;;4912115;29;20280;-66
2024/03/20 07:25:01;;;;;;;36.63;18.90;;;10.00;99.90;;;;;;4915848;29;20255;-66
2024/03/20 07:27:28;;;;;;;42.13;20.40;;;10.30;99.90;;;;;;4910163;29;20221;-66
2024/03/20 07:29:56;;;;;;;41.63;20.73;;;10.50;99.90;;;;;;4910920;29;20301;-66
2024/03/20 07:32:23;;;;;;;37.13;20.30;;;10.60;99.90;;;;;;4911459;29;21041;-67
2024/03/20 07:34:50;;;;;;;34.33;19.17;;;10.80;99.90;;;;;;4909474;29;20228;-66
2024/03/20 07:37:17;;;;;;;35.20;17.77;;;11.00;99.90;;;;;;4910951;29;20266;-66
2024/03/20 07:39:45;;;;;;;31.33;15.67;;;11.30;99.90;;;;;;4915737;29;20746;-66
2024/03/20 07:42:11;;;;;;;26.37;16.27;;;11.50;99.90;;;;;;4909348;29;20228;-66
2024/03/20 07:44:38;;;;;;;25.93;14.37;;;11.80;99.90;;;;;;4916605;29;20652;-66
2024/03/20 07:47:06;;;;;;;29.70;14.97;;;12.00;99.90;;;;;;4908173;29;20201;-66
2024/03/20 07:49:33;;;;;;;28.53;14.60;;;12.20;99.90;;;;;;4906865;29;20230;-66
2024/03/20 07:52:00;;;;;;;25.00;15.23;;;12.50;99.90;;;;;;4909333;29;20220;-66
2024/03/20 07:54:27;;;;;;;25.73;16.13;;;12.80;99.90;;;;;;4914789;29;20632;-66
2024/03/20 07:56:54;;;;;;;29.33;15.37;;;13.00;99.90;;;;;;4910236;29;20221;-66
2024/03/20 07:59:23;;;;;;;33.40;15.77;;;13.10;99.90;;;;;;4913984;29;20198;-65
2024/03/20 08:01:50;;;;;;;29.03;16.07;;;13.00;99.90;;;;;;4908466;29;21111;-66
2024/03/20 08:04:19;;;;;;;31.73;17.23;;;12.70;99.90;;;;;;4911332;29;20580;-65
2024/03/20 08:06:46;;;;;;;39.07;17.97;;;12.50;99.90;;;;;;4908549;29;20221;-65
2024/03/20 08:09:13;;;;;;;33.27;16.70;;;12.40;99.90;;;;;;4916725;29;20244;-66
2024/03/20 08:11:39;;;;;;;31.30;16.57;;;12.50;99.90;;;;;;4914548;29;20356;-65
2024/03/20 08:14:09;;;;;;;41.37;17.60;;;12.70;99.90;;;;;;4911110;29;20256;-65
2024/03/20 08:16:37;;;;;;;29.47;16.07;;;12.80;99.90;;;;;;4910133;29;20312;-65
2024/03/20 08:19:05;;;;;;;28.90;15.27;;;13.00;99.90;;;;;;4912247;29;20975;-65
2024/03/20 08:21:34;;;;;;;31.73;15.93;;;13.30;99.90;;;;;;4909118;29;20217;-66
2024/03/20 08:24:04;;;;;;;26.00;14.03;;;13.70;99.90;;;;;;4912283;29;20237;-66
2024/03/20 08:26:30;;;;;;;31.73;16.70;;;14.00;99.90;;;;;;4907960;29;20729;-65
2024/03/20 08:28:57;;;;;;;27.03;16.60;;;13.80;99.90;;;;;;4910207;29;20208;-65
2024/03/20 08:31:24;;;;;;;27.37;16.67;;;13.80;99.90;;;;;;4908552;29;20218;-66
2024/03/20 08:33:52;;;;;;;26.50;15.43;;;13.80;99.90;;;;;;4911817;29;20221;-65
2024/03/20 08:36:19;;;;;;;29.33;16.07;;;14.10;99.90;;;;;;4911257;29;20253;-65
2024/03/20 08:38:50;;;;;;;26.70;15.87;;;14.70;99.90;;;;;;4909180;29;20245;-65
2024/03/20 08:41:17;;;;;;;27.47;15.87;;;14.80;94.20;;;;;;4920950;29;20211;-66
2024/03/20 08:43:51;;;;;;;22.70;14.73;;;14.70;98.10;;;;;;4908319;29;20224;-66
2024/03/20 08:46:19;;;;;;;31.20;16.60;;;14.50;29.20;;;;;;4924606;29;20253;-66
2024/03/20 08:48:45;;;;;;;28.67;15.00;;;14.60;27.80;;;;;;4911162;29;20317;-66
2024/03/20 08:51:13;;;;;;;20.50;13.60;;;14.90;1.00;;;;;;4906581;29;20277;-66
2024/03/20 08:53:39;;;;;;;20.83;13.33;;;15.30;1.00;;;;;;4915978;29;20306;-65
2024/03/20 08:56:08;;;;;;;24.60;14.27;;;15.70;1.00;;;;;;4911132;29;20197;-65
2024/03/20 08:58:34;;;;;;;22.43;13.07;;;16.00;1.00;;;;;;4910093;29;20232;-66
2024/03/20 09:01:02;;;;;;;25.93;13.93;;;16.10;1.00;;;;;;4913869;29;20629;-66
2024/03/20 09:03:30;;;;;;;23.90;13.33;;;16.30;1.00;;;;;;4911095;29;20307;-66
2024/03/20 09:05:57;;;;;;;21.63;13.83;;;16.30;1.00;;;;;;4923709;29;20223;-66
2024/03/20 09:08:25;;;;;;;22.63;13.33;;;16.40;1.00;;;;;;4913666;29;20296;-65
2024/03/20 09:10:53;;;;;;;18.73;13.13;;;16.70;1.00;;;;;;4908057;29;20949;-65
2024/03/20 09:13:22;;;;;;;23.87;13.27;;;17.00;1.00;;;;;;4911797;29;20221;-65
2024/03/20 09:15:49;;;;;;;20.63;13.43;;;17.20;99.90;;;;;;4905306;29;20230;-66
2024/03/20 09:18:16;;;;;;;23.40;13.10;;;17.30;99.90;;;;;;4909295;29;20226;-65
2024/03/20 09:20:43;;;;;;;22.13;13.30;;;17.30;99.90;;;;;;4907873;29;20200;-65
2024/03/20 09:23:10;;;;;;;19.30;12.90;;;17.70;99.90;;;;;;4906749;29;20240;-66
2024/03/20 09:25:37;;;;;;;18.37;11.90;;;17.80;1.00;;;;;;4911875;29;20730;-65
2024/03/20 09:28:04;;;;;;;16.93;12.93;;;18.10;64.50;;;;;;4907000;29;20221;-66
2024/03/20 09:30:33;;;;;;;22.33;12.67;;;18.50;1.00;;;;;;4910608;29;20779;-65
2024/03/20 09:33:00;;;;;;;17.30;12.10;;;18.70;1.00;;;;;;4906542;29;20233;-66
2024/03/20 09:35:27;;;;;;;17.63;11.87;;;19.00;1.00;;;;;;4910641;29;20223;-66
2024/03/20 09:37:54;;;;;;;20.83;12.47;;;19.00;1.00;;;;;;4910079;29;20599;-66
2024/03/20 09:40:22;;;;;;;17.87;12.73;;;19.00;99.90;;;;;;4905975;29;20224;-66
2024/03/20 09:42:51;;;;;;;18.53;12.70;;;18.80;1.00;;;;;;4923584;29;20308;-66
2024/03/20 09:45:19;;;;;;;22.03;13.23;;;18.60;99.90;;;;;;4906770;29;20288;-67
2024/03/20 09:47:50;;;;;;;20.30;12.50;;;18.90;1.00;;;;;;4910313;29;20569;-66
2024/03/20 09:50:18;;;;;;;16.77;11.40;;;19.10;1.00;;;;;;4903434;29;20713;-66
2024/03/20 09:52:44;;;;;;;19.00;12.33;;;19.30;87.60;;;;;;4911738;29;20305;-67
2024/03/20 09:55:15;;;;;;;18.67;12.20;;;19.30;99.90;;;;;;4906180;29;20242;-66
2024/03/20 09:57:43;;;;;;;17.83;11.63;;;19.10;1.00;;;;;;4898133;29;20227;-67
2024/03/20 10:00:16;;;;;;;17.37;11.93;;;19.00;1.00;;;;;;4908322;29;20962;-65
2024/03/20 10:02:44;;;;;;;21.97;12.60;;;19.00;1.00;;;;;;4926635;29;20196;-66
2024/03/20 10:05:13;;;;;;;19.03;11.70;;;19.10;1.00;;;;;;4908787;29;20292;-67
2024/03/20 10:07:40;;;;;;;17.23;11.93;;;19.30;1.00;;;;;;4909388;29;20228;-66
2024/03/20 10:10:09;;;;;;;16.80;11.60;;;19.60;99.90;;;;;;4903430;29;20242;-66
2024/03/20 10:12:36;;;;;;;13.47;10.97;;;20.10;1.00;;;;;;4902694;29;20223;-65
2024/03/20 10:15:07;;;;;;;16.60;10.17;;;20.50;1.00;;;;;;4907577;29;20316;-66
2024/03/20 10:17:35;;;;;;;13.70;10.23;;;21.10;1.00;;;;;;4903524;29;20600;-65
2024/03/20 10:20:05;;;;;;;13.30;10.23;;;21.50;1.00;;;;;;4902685;29;20272;-66
2024/03/20 10:22:34;;;;;;;14.30;9.67;;;21.80;1.00;;;;;;4902060;29;20268;-65
2024/03/20 10:25:02;;;;;;;11.00;9.13;;;22.10;99.90;;;;;;4905241;29;20340;-66
2024/03/20 10:27:29;;;;;;;14.90;10.23;;;22.20;62.60;;;;;;4918049;29;20224;-66
2024/03/20 10:29:59;;;;;;;14.07;10.20;;;22.30;1.00;;;;;;4906244;29;20312;-66
2024/03/20 10:32:26;;;;;;;15.90;10.03;;;22.50;1.00;;;;;;4903977;29;20209;-66
2024/03/20 10:34:58;;;;;;;11.63;8.93;;;22.80;1.00;;;;;;4907369;29;20584;-66
2024/03/20 10:37:26;;;;;;;13.73;9.17;;;22.40;99.90;;;;;;4904418;29;20236;-66
2024/03/20 10:39:57;;;;;;;13.57;9.93;;;22.90;1.00;;;;;;4904345;29;20261;-66
2024/03/20 10:42:25;;;;;;;9.27;8.15;;;23.30;1.00;;;;;;4903995;29;20234;-66
2024/03/20 10:44:53;;;;;;;10.70;8.40;;;23.90;1.00;;;;;;4900524;29;20307;-66
2024/03/20 10:47:21;;;;;;;9.38;7.18;;;24.20;99.90;;;;;;4900191;29;20606;-65
2024/03/20 10:49:48;;;;;;;10.30;6.43;;;24.50;99.90;;;;;;4922782;29;20226;-66
2024/03/20 10:52:15;;;;;;;8.52;7.57;;;24.70;1.00;;;;;;4904475;29;21028;-66
2024/03/20 10:54:42;;;;;;;7.90;7.10;;;24.80;1.00;;;;;;4913287;29;20234;-66
2024/03/20 10:57:10;;;;;;;10.20;7.03;;;24.60;1.00;;;;;;4908226;29;20309;-66
2024/03/20 10:59:39;;;;;;;8.00;7.10;;;24.40;1.00;;;;;;4909894;29;20299;-66
2024/03/20 11:02:15;;;;;;;10.10;7.55;;;24.70;1.00;;;;;;4921426;29;20723;-66
2024/03/20 11:04:44;;;;;;;6.22;5.68;;;24.80;1.00;;;;;;4911342;29;20238;-66
2024/03/20 11:07:40;;;;;;;6.70;6.05;;;25.10;1.00;;;;;;4923391;29;20315;-66
2024/03/20 11:10:20;;;;;;;5.80;5.18;;;24.60;1.00;;;;;;4908246;29;20312;-66
2024/03/20 11:12:48;;;;;;;6.97;5.75;;;24.60;1.00;;;;;;4902760;29;20315;-65
2024/03/20 11:15:18;;;;;;;6.60;6.00;;;24.60;1.00;;;;;;4907424;29;20240;-66
2024/03/20 11:17:51;;;;;;;7.25;5.90;;;24.60;1.00;;;;;;4909319;29;20198;-66
2024/03/20 11:20:41;;;;;;;7.03;6.18;;;24.50;1.00;;;;;;4911308;29;20564;-65
2024/03/20 11:23:20;;;;;;;8.25;5.75;;;24.20;1.00;;;;;;4906781;29;20245;-65
2024/03/20 11:25:47;;;;;;;6.85;5.95;;;24.40;1.00;;;;;;4909300;29;20224;-66
2024/03/20 11:28:15;;;;;;;6.15;5.65;;;24.60;1.00;;;;;;4908789;29;20219;-65
2024/03/20 11:30:42;;;;;;;6.15;5.10;;;24.60;1.00;;;;;;4910320;29;20322;-65
2024/03/20 11:33:12;;;;;;;6.88;6.10;;;24.50;1.00;;;;;;4911174;29;20860;-66
2024/03/20 11:35:40;;;;;;;5.65;5.15;;;24.20;1.00;;;;;;4906898;29;20299;-66
2024/03/20 11:38:12;;;;;;;9.80;6.13;;;24.10;1.00;;;;;;4909243;29;20209;-66
2024/03/20 11:40:39;;;;;;;6.90;6.13;;;23.50;1.00;;;;;;4909543;29;20234;-66
2024/03/20 11:43:06;;;;;;;7.77;5.57;;;23.10;1.00;;;;;;4907836;29;20221;-65
2024/03/20 11:45:36;;;;;;;6.10;5.50;;;23.10;1.00;;;;;;4924869;29;20222;-65
2024/03/20 11:48:02;;;;;;;6.20;5.60;;;23.30;1.00;;;;;;4911612;29;20221;-66
2024/03/20 11:50:30;;;;;;;6.63;5.40;;;23.60;1.00;;;;;;4909423;29;20193;-66
2024/03/20 11:52:58;;;;;;;5.80;5.30;;;23.80;1.00;;;;;;4921681;29;20222;-66
2024/03/20 11:55:25;;;;;;;5.57;4.63;;;23.90;1.00;;;;;;4907324;29;20230;-66
2024/03/20 11:57:52;;;;;;;3.40;3.20;;;24.10;1.00;;;;;;4923051;29;20593;-64
2024/03/20 12:00:20;;;;;;;4.03;3.67;;;24.50;1.00;;;;;;4908832;29;20656;-66
2024/03/20 12:02:49;;;;;;;4.13;3.83;;;24.70;1.00;;;;;;4908107;29;20229;-66
2024/03/20 12:05:18;;;;;;;5.97;4.97;;;25.00;1.00;;;;;;4910369;29;20203;-65
2024/03/20 12:07:54;;;;;;;6.27;5.30;;;24.90;99.90;;;;;;4907805;29;20325;-65
2024/03/20 12:10:36;;;;;;;6.33;5.30;;;24.60;1.00;;;;;;4908844;29;20944;-64
2024/03/20 12:13:06;;;;;;;6.30;5.20;;;24.30;1.00;;;;;;4911411;29;20230;-64
2024/03/20 12:15:34;;;;;;;7.70;5.17;;;24.40;1.00;;;;;;4907165;29;20358;-64
2024/03/20 12:18:03;;;;;;;5.67;5.13;;;24.30;1.00;;;;;;4909814;29;20226;-64
2024/03/20 12:20:31;;;;;;;3.97;3.70;;;24.30;1.00;;;;;;4908195;29;20277;-64
2024/03/20 12:22:58;;;;;;;4.60;4.30;;;24.30;1.00;;;;;;4906950;29;20244;-64
2024/03/20 12:25:26;;;;;;;4.97;4.63;;;24.20;99.90;;;;;;4925520;29;20320;-64
2024/03/20 12:27:53;;;;;;;3.93;3.50;;;23.70;1.00;;;;;;4927161;29;20621;-64
2024/03/20 12:30:20;;;;;;;4.67;3.70;;;23.40;1.00;;;;;;4906284;29;20771;-64
2024/03/20 12:32:47;;;;;;;4.60;3.73;;;23.40;1.00;;;;;;4910636;29;20687;-64
2024/03/20 12:35:17;;;;;;;3.47;3.27;;;23.60;1.00;;;;;;4909100;29;20287;-65
2024/03/20 12:37:44;;;;;;;5.47;3.63;;;23.70;1.00;;;;;;4889643;29;20229;-64
2024/03/20 12:40:12;;;;;;;3.60;3.30;;;23.80;1.00;;;;;;4907687;29;20273;-65
2024/03/20 12:42:39;;;;;;;3.53;3.10;;;23.80;99.90;;;;;;4907331;29;20305;-64
2024/03/20 12:45:10;;;;;;;7.57;3.20;;;23.90;1.00;;;;;;4912659;29;20233;-64